createdAt,value
2022-09-17T00:01:01.850Z,11.70
2022-09-17T00:03:29.118Z,11.63
2022-09-17T00:06:04.339Z,11.57
2022-09-17T00:08:31.695Z,11.52
2022-09-17T00:10:58.831Z,11.47
2022-09-17T00:13:25.453Z,11.46
2022-09-17T00:15:52.455Z,11.23
2022-09-17T00:18:19.244Z,11.26
2022-09-17T00:20:47.307Z,11.46
2022-09-17T00:23:14.761Z,11.46
2022-09-17T00:25:43.183Z,11.44
2022-09-17T00:28:10.715Z,11.39
2022-09-17T00:30:43.496Z,11.44
2022-09-17T00:33:17.870Z,11.44
2022-09-17T00:35:44.869Z,11.32
2022-09-17T00:38:11.770Z,11.39
2022-09-17T00:40:38.985Z,11.38
2022-09-17T00:43:12.113Z,11.35
2022-09-17T00:45:40.072Z,11.46
2022-09-17T00:48:07.230Z,11.34
2022-09-17T00:50:36.518Z,11.35
2022-09-17T00:53:06.799Z,11.36
2022-09-17T00:55:37.617Z,11.46
2022-09-17T00:58:08.329Z,11.33
2022-09-17T01:00:35.552Z,11.36
2022-09-17T01:03:02.064Z,11.27
2022-09-17T01:05:43.468Z,11.29
2022-09-17T01:08:26.097Z,11.29
2022-09-17T01:11:27.122Z,11.25
2022-09-17T01:13:53.679Z,11.26
2022-09-17T01:16:42.117Z,11.23
2022-09-17T01:19:23.884Z,11.16
2022-09-17T01:22:05.895Z,11.10
2022-09-17T01:25:00.359Z,11.20
2022-09-17T01:28:02.030Z,11.15
2022-09-17T01:30:55.664Z,11.20
2022-09-17T01:33:52.882Z,11.17
2022-09-17T01:36:41.188Z,11.20
2022-09-17T01:39:49.381Z,11.21
2022-09-17T01:42:31.429Z,11.23
2022-09-17T01:45:12.689Z,11.29
2022-09-17T01:47:47.995Z,11.34
2022-09-17T01:50:21.679Z,11.31
2022-09-17T01:52:52.572Z,11.23
2022-09-17T01:55:22.599Z,11.27
2022-09-17T01:58:07.666Z,11.27
2022-09-17T02:00:36.971Z,11.30
2022-09-17T02:03:10.535Z,11.25
2022-09-17T02:05:42.552Z,11.28
2022-09-17T02:08:17.175Z,11.29
2022-09-17T02:10:47.945Z,11.30
2022-09-17T02:13:38.208Z,11.27
2022-09-17T02:16:13.165Z,11.34
2022-09-17T02:18:46.519Z,11.34
2022-09-17T02:21:27.681Z,11.36
2022-09-17T02:24:22.346Z,11.41
2022-09-17T02:26:58.336Z,11.39
2022-09-17T02:29:33.822Z,11.43
2022-09-17T02:32:01.294Z,11.31
2022-09-17T02:34:29.278Z,11.37
2022-09-17T02:36:58.389Z,11.36
2022-09-17T02:39:25.656Z,11.36
2022-09-17T02:42:15.843Z,11.40
2022-09-17T02:45:15.585Z,11.44
2022-09-17T02:48:12.806Z,11.47
2022-09-17T02:50:47.409Z,11.36
2022-09-17T02:53:20.043Z,11.41
2022-09-17T02:56:08.830Z,11.32
2022-09-17T02:58:45.210Z,11.35
2022-09-17T03:01:23.283Z,11.32
2022-09-17T03:03:53.069Z,11.35
2022-09-17T03:06:20.403Z,11.28
2022-09-17T03:08:47.513Z,11.30
2022-09-17T03:11:15.002Z,11.20
2022-09-17T03:13:41.809Z,11.21
2022-09-17T03:16:08.964Z,11.20
2022-09-17T03:18:35.854Z,11.24
2022-09-17T03:21:02.506Z,11.29
2022-09-17T03:23:29.013Z,11.25
2022-09-17T03:25:55.748Z,11.29
2022-09-17T03:28:23.231Z,11.20
2022-09-17T03:30:49.791Z,11.16
2022-09-17T03:33:16.654Z,11.10
2022-09-17T03:35:46.942Z,11.14
2022-09-17T03:38:14.073Z,11.11
2022-09-17T03:40:40.829Z,11.21
2022-09-17T03:43:07.946Z,11.15
2022-09-17T03:45:34.772Z,11.16
2022-09-17T03:48:01.612Z,11.20
2022-09-17T03:50:28.282Z,11.26
2022-09-17T03:52:54.891Z,11.20
2022-09-17T03:55:21.442Z,11.16
2022-09-17T03:57:48.034Z,11.17
2022-09-17T04:00:17.301Z,11.19
2022-09-17T04:02:44.090Z,11.09
2022-09-17T04:05:10.676Z,11.04
2022-09-17T04:07:39.099Z,11.02
2022-09-17T04:10:06.395Z,11.00
2022-09-17T04:12:33.015Z,11.01
2022-09-17T04:14:59.637Z,10.97
2022-09-17T04:17:27.168Z,10.97
2022-09-17T04:19:53.668Z,10.99
2022-09-17T04:22:20.220Z,11.07
2022-09-17T04:24:46.734Z,11.00
2022-09-17T04:27:13.351Z,10.99
2022-09-17T04:29:39.920Z,11.15
2022-09-17T04:32:06.526Z,11.17
2022-09-17T04:34:33.218Z,11.06
2022-09-17T04:36:59.818Z,11.08
2022-09-17T04:39:26.348Z,11.05
2022-09-17T04:41:52.906Z,11.13
2022-09-17T04:44:19.571Z,11.08
2022-09-17T04:46:46.327Z,11.03
2022-09-17T04:49:13.114Z,10.99
2022-09-17T04:51:39.823Z,11.05
2022-09-17T04:54:06.463Z,11.04
2022-09-17T04:56:33.248Z,11.11
2022-09-17T04:58:59.832Z,11.04
2022-09-17T05:01:26.404Z,10.97
2022-09-17T05:03:52.943Z,11.02
2022-09-17T05:06:19.598Z,11.04
2022-09-17T05:08:46.073Z,11.05
2022-09-17T05:11:12.749Z,11.03
2022-09-17T05:13:39.272Z,11.05
2022-09-17T05:16:05.998Z,11.04
2022-09-17T05:18:32.537Z,11.07
2022-09-17T05:20:59.207Z,11.07
2022-09-17T05:23:25.780Z,11.02
2022-09-17T05:25:52.930Z,11.04
2022-09-17T05:28:19.413Z,11.02
2022-09-17T05:30:46.010Z,11.09
2022-09-17T05:33:12.483Z,11.04
2022-09-17T05:35:39.043Z,11.14
2022-09-17T05:38:07.450Z,11.09
2022-09-17T05:40:34.166Z,11.11
2022-09-17T05:43:02.195Z,11.21
2022-09-17T05:45:29.802Z,11.21
2022-09-17T05:48:01.324Z,11.22
2022-09-17T05:50:29.214Z,11.16
2022-09-17T05:52:55.812Z,11.19
2022-09-17T05:55:23.997Z,11.15
2022-09-17T05:57:51.239Z,11.17
2022-09-17T06:00:18.807Z,11.14
2022-09-17T06:02:45.641Z,11.14
2022-09-17T06:05:12.486Z,11.19
2022-09-17T06:07:39.342Z,11.20
2022-09-17T06:10:08.196Z,11.14
2022-09-17T06:12:35.564Z,11.07
2022-09-17T06:15:04.443Z,11.08
2022-09-17T06:17:35.720Z,11.04
2022-09-17T06:20:03.363Z,11.07
2022-09-17T06:22:29.934Z,11.13
2022-09-17T06:24:56.637Z,11.16
2022-09-17T06:27:23.155Z,11.04
2022-09-17T06:29:49.693Z,11.07
2022-09-17T06:32:16.958Z,11.09
2022-09-17T06:34:43.854Z,11.07
2022-09-17T06:37:10.611Z,11.05
2022-09-17T06:39:37.357Z,11.08
2022-09-17T06:42:04.150Z,11.14
2022-09-17T06:44:31.982Z,11.07
2022-09-17T06:46:58.587Z,11.13
2022-09-17T06:49:25.232Z,11.19
2022-09-17T06:51:51.708Z,11.15
2022-09-17T06:54:18.246Z,11.14
2022-09-17T06:56:47.377Z,11.05
2022-09-17T06:59:13.894Z,11.08
2022-09-17T07:01:40.507Z,11.00
2022-09-17T07:04:07.273Z,10.90
2022-09-17T07:06:33.768Z,10.92
2022-09-17T07:09:00.566Z,10.89
2022-09-17T07:11:27.126Z,10.97
2022-09-17T07:13:53.847Z,10.95
2022-09-17T07:16:21.300Z,11.04
2022-09-17T07:18:47.899Z,11.06
2022-09-17T07:21:14.524Z,11.22
2022-09-17T07:23:41.156Z,11.41
2022-09-17T07:26:13.428Z,11.31
2022-09-17T07:28:40.891Z,11.35
2022-09-17T07:31:12.418Z,11.35
2022-09-17T07:33:42.544Z,11.41
2022-09-17T07:36:12.030Z,11.59
2022-09-17T07:38:39.553Z,11.57
2022-09-17T07:41:12.951Z,11.55
2022-09-17T07:43:40.249Z,11.66
2022-09-17T07:46:08.237Z,11.76
2022-09-17T07:48:35.038Z,11.74
2022-09-17T07:51:01.607Z,11.82
2022-09-17T07:53:28.585Z,12.03
2022-09-17T07:56:01.987Z,11.99
2022-09-17T07:58:31.211Z,11.98
2022-09-17T08:01:06.928Z,11.95
2022-09-17T08:03:34.074Z,12.04
2022-09-17T08:06:03.982Z,11.97
2022-09-17T08:08:33.655Z,12.12
2022-09-17T08:11:03.057Z,12.17
2022-09-17T08:13:30.452Z,12.26
2022-09-17T08:16:01.949Z,12.33
2022-09-17T08:18:29.877Z,12.29
2022-09-17T08:20:58.546Z,12.34
2022-09-17T08:23:26.137Z,12.37
2022-09-17T08:25:55.001Z,12.43
2022-09-17T08:28:22.979Z,12.47
2022-09-17T08:30:50.429Z,12.58
2022-09-17T08:33:17.851Z,12.56
2022-09-17T08:35:54.898Z,12.72
2022-09-17T08:38:22.091Z,12.49
2022-09-17T08:41:10.343Z,12.47
2022-09-17T08:43:57.383Z,12.64
2022-09-17T08:46:26.065Z,12.82
2022-09-17T08:49:15.280Z,12.99
2022-09-17T08:51:53.167Z,12.87
2022-09-17T08:54:27.881Z,12.88
2022-09-17T08:57:35.012Z,12.94
2022-09-17T09:00:11.100Z,13.14
2022-09-17T09:02:47.283Z,13.19
2022-09-17T09:05:16.498Z,13.05
2022-09-17T09:08:05.561Z,13.28
2022-09-17T09:10:49.240Z,13.45
2022-09-17T09:13:20.426Z,13.82
2022-09-17T09:15:55.114Z,13.97
2022-09-17T09:18:25.061Z,13.96
2022-09-17T09:21:12.085Z,13.87
2022-09-17T09:23:38.987Z,14.11
2022-09-17T09:26:20.566Z,14.40
2022-09-17T09:29:05.973Z,14.50
2022-09-17T09:31:59.514Z,14.59
2022-09-17T09:34:29.414Z,14.90
2022-09-17T09:37:11.982Z,14.89
2022-09-17T09:39:45.735Z,14.79
2022-09-17T09:42:19.352Z,14.86
2022-09-17T09:44:46.272Z,14.63
2022-09-17T09:47:27.489Z,14.75
2022-09-17T09:50:08.101Z,14.92
2022-09-17T09:52:48.813Z,14.97
2022-09-17T09:55:28.758Z,14.67
2022-09-17T09:58:03.367Z,14.47
2022-09-17T10:00:36.060Z,14.27
2022-09-17T10:03:32.838Z,13.93
2022-09-17T10:06:07.401Z,14.13
2022-09-17T10:08:40.084Z,14.25
2022-09-17T10:11:12.986Z,14.39
2022-09-17T10:13:40.471Z,14.46
2022-09-17T10:16:20.944Z,14.78
2022-09-17T10:18:49.635Z,14.99
2022-09-17T10:21:21.217Z,14.79
2022-09-17T10:23:49.078Z,14.89
2022-09-17T10:26:30.586Z,14.81
2022-09-17T10:28:59.932Z,14.65
2022-09-17T10:31:26.764Z,14.15
2022-09-17T10:33:58.288Z,13.77
2022-09-17T10:36:46.006Z,13.95
2022-09-17T10:39:44.340Z,14.05
2022-09-17T10:42:10.970Z,13.92
2022-09-17T10:44:38.806Z,13.94
2022-09-17T10:47:22.033Z,13.89
2022-09-17T10:50:01.303Z,13.72
2022-09-17T10:52:46.725Z,14.06
2022-09-17T10:55:16.663Z,14.09
2022-09-17T10:57:49.210Z,14.06
2022-09-17T11:00:19.911Z,14.13
2022-09-17T11:03:16.452Z,14.06
2022-09-17T11:06:15.390Z,13.92
2022-09-17T11:09:26.161Z,13.96
2022-09-17T11:12:03.112Z,13.74
2022-09-17T11:14:42.511Z,13.54
2022-09-17T11:17:40.707Z,13.53
2022-09-17T11:20:52.557Z,13.53
2022-09-17T11:23:56.406Z,13.59
2022-09-17T11:26:39.029Z,13.72
2022-09-17T11:29:17.882Z,13.72
2022-09-17T11:31:54.415Z,13.80
2022-09-17T11:34:23.537Z,13.65
2022-09-17T11:37:11.198Z,13.80
2022-09-17T11:39:49.546Z,13.90
2022-09-17T11:42:28.629Z,13.99
2022-09-17T11:45:04.358Z,14.19
2022-09-17T11:47:35.992Z,14.29
2022-09-17T11:50:28.295Z,14.15
2022-09-17T11:53:15.344Z,14.08
2022-09-17T11:55:53.630Z,13.78
2022-09-17T11:58:32.287Z,13.87
2022-09-17T12:01:05.884Z,13.55
2022-09-17T12:04:03.225Z,13.29
2022-09-17T12:06:44.407Z,12.90
2022-09-17T12:09:18.915Z,12.68
2022-09-17T12:12:01.363Z,12.69
2022-09-17T12:14:48.982Z,12.75
2022-09-17T12:17:23.798Z,12.74
2022-09-17T12:19:59.289Z,12.89
2022-09-17T12:22:38.078Z,12.89
2022-09-17T12:25:12.316Z,12.97
2022-09-17T12:27:53.071Z,13.02
2022-09-17T12:30:25.719Z,13.08
2022-09-17T12:33:14.902Z,13.22
2022-09-17T12:36:04.427Z,13.45
2022-09-17T12:39:08.674Z,13.61
2022-09-17T12:42:01.285Z,13.84
2022-09-17T12:44:43.265Z,13.94
2022-09-17T12:47:19.206Z,14.25
2022-09-17T12:50:04.312Z,14.25
2022-09-17T12:52:31.028Z,13.98
2022-09-17T12:55:19.036Z,12.97
2022-09-17T12:58:15.339Z,12.86
2022-09-17T13:00:48.918Z,12.94
2022-09-17T13:03:26.202Z,12.99
2022-09-17T13:06:04.522Z,12.96
2022-09-17T13:08:55.476Z,13.13
2022-09-17T13:12:00.011Z,13.24
2022-09-17T13:14:41.992Z,13.43
2022-09-17T13:17:24.532Z,13.58
2022-09-17T13:19:59.386Z,13.38
2022-09-17T13:22:34.504Z,13.05
2022-09-17T13:25:05.777Z,13.07
2022-09-17T13:27:37.536Z,13.19
2022-09-17T13:30:06.955Z,13.16
2022-09-17T13:32:33.637Z,13.23
2022-09-17T13:35:12.193Z,13.24
2022-09-17T13:37:40.474Z,13.47
2022-09-17T13:40:30.311Z,13.74
2022-09-17T13:43:08.830Z,13.73
2022-09-17T13:46:00.510Z,13.66
2022-09-17T13:48:31.012Z,13.70
2022-09-17T13:50:57.766Z,13.70
2022-09-17T13:53:27.285Z,13.92
2022-09-17T13:56:00.526Z,14.00
2022-09-17T13:58:30.440Z,13.88
2022-09-17T14:01:13.267Z,13.90
2022-09-17T14:03:46.465Z,13.70
2022-09-17T14:06:17.935Z,13.16
2022-09-17T14:08:44.565Z,12.90
2022-09-17T14:11:23.465Z,12.74
2022-09-17T14:14:10.406Z,12.61
2022-09-17T14:16:42.977Z,12.75
2022-09-17T14:19:15.286Z,12.96
2022-09-17T14:22:07.857Z,12.99
2022-09-17T14:24:42.312Z,13.24
2022-09-17T14:27:39.971Z,13.02
2022-09-17T14:30:20.450Z,13.15
2022-09-17T14:32:59.265Z,13.17
2022-09-17T14:35:35.556Z,13.15
2022-09-17T14:38:24.842Z,13.17
2022-09-17T14:41:05.845Z,13.33
2022-09-17T14:44:01.242Z,13.44
2022-09-17T14:46:32.168Z,13.52
2022-09-17T14:49:23.529Z,13.56
2022-09-17T14:51:54.638Z,13.66
2022-09-17T14:54:44.568Z,13.66
2022-09-17T14:57:27.603Z,13.72
2022-09-17T14:59:56.559Z,13.96
2022-09-17T15:02:32.015Z,14.19
2022-09-17T15:04:58.987Z,14.38
2022-09-17T15:07:26.949Z,14.29
2022-09-17T15:09:55.357Z,14.19
2022-09-17T15:12:29.772Z,14.13
2022-09-17T15:14:58.161Z,14.12
2022-09-17T15:17:25.027Z,14.33
2022-09-17T15:19:56.684Z,14.36
2022-09-17T15:22:27.561Z,14.20
2022-09-17T15:25:00.145Z,14.17
2022-09-17T15:27:33.580Z,14.01
2022-09-17T15:30:05.958Z,14.00
2022-09-17T15:32:33.616Z,13.86
2022-09-17T15:35:31.320Z,13.74
2022-09-17T15:38:21.866Z,13.54
2022-09-17T15:40:47.479Z,13.67
2022-09-17T15:43:34.498Z,13.95
2022-09-17T15:46:22.687Z,14.18
2022-09-17T15:48:49.631Z,14.09
2022-09-17T15:51:34.470Z,14.10
2022-09-17T15:54:04.940Z,13.87
2022-09-17T15:56:34.408Z,14.07
2022-09-17T15:59:04.834Z,14.42
2022-09-17T16:01:40.774Z,14.52
2022-09-17T16:04:16.631Z,14.59
2022-09-17T16:07:00.103Z,14.41
2022-09-17T16:09:41.912Z,14.22
2022-09-17T16:12:11.843Z,14.03
2022-09-17T16:14:38.590Z,13.95
2022-09-17T16:17:36.467Z,13.70
2022-09-17T16:20:26.129Z,13.73
2022-09-17T16:22:53.339Z,13.80
2022-09-17T16:25:25.346Z,13.40
2022-09-17T16:27:57.561Z,13.30
2022-09-17T16:30:25.142Z,13.16
2022-09-17T16:32:53.626Z,13.04
2022-09-17T16:35:25.907Z,13.10
2022-09-17T16:37:54.571Z,13.02
2022-09-17T16:40:23.587Z,12.90
2022-09-17T16:42:50.725Z,12.86
2022-09-17T16:45:17.382Z,12.86
2022-09-17T16:47:44.713Z,12.90
2022-09-17T16:50:14.379Z,12.92
2022-09-17T16:52:41.165Z,13.09
2022-09-17T16:55:08.775Z,13.08
2022-09-17T16:57:35.497Z,13.17
2022-09-17T17:00:02.842Z,13.28
2022-09-17T17:02:29.446Z,13.25
2022-09-17T17:04:56.089Z,13.29
2022-09-17T17:07:22.637Z,13.31
2022-09-17T17:09:49.255Z,13.25
2022-09-17T17:12:16.164Z,13.35
2022-09-17T17:14:44.363Z,13.35
2022-09-17T17:17:10.916Z,13.29
2022-09-17T17:19:37.448Z,13.22
2022-09-17T17:22:04.008Z,13.18
2022-09-17T17:24:30.971Z,13.08
2022-09-17T17:26:57.477Z,13.09
2022-09-17T17:29:24.057Z,13.14
2022-09-17T17:31:50.949Z,13.03
2022-09-17T17:34:17.576Z,13.03
2022-09-17T17:36:44.129Z,12.95
2022-09-17T17:39:10.825Z,12.91
2022-09-17T17:41:37.424Z,12.85
2022-09-17T17:44:04.008Z,12.81
2022-09-17T17:46:30.567Z,12.75
2022-09-17T17:48:58.113Z,12.81
2022-09-17T17:51:25.249Z,12.78
2022-09-17T17:53:51.785Z,12.81
2022-09-17T17:56:19.756Z,12.80
2022-09-17T17:58:46.538Z,12.83
2022-09-17T18:01:19.562Z,12.86
2022-09-17T18:03:46.929Z,12.82
2022-09-17T18:06:14.417Z,12.79
2022-09-17T18:08:42.947Z,12.79
2022-09-17T18:11:11.185Z,12.78
2022-09-17T18:13:39.465Z,12.78
2022-09-17T18:16:08.994Z,12.83
2022-09-17T18:18:45.098Z,12.85
2022-09-17T18:21:17.148Z,12.77
2022-09-17T18:23:44.819Z,12.90
2022-09-17T18:26:14.513Z,12.91
2022-09-17T18:28:41.622Z,12.88
2022-09-17T18:31:14.691Z,12.91
2022-09-17T18:33:41.366Z,12.88
2022-09-17T18:36:07.915Z,12.87
2022-09-17T18:38:35.409Z,12.83
2022-09-17T18:41:06.975Z,12.87
2022-09-17T18:43:34.211Z,12.80
2022-09-17T18:46:00.938Z,12.76
2022-09-17T18:48:27.983Z,12.62
2022-09-17T18:51:05.100Z,12.57
2022-09-17T18:53:36.042Z,12.68
2022-09-17T18:56:24.913Z,12.71
2022-09-17T18:58:55.099Z,12.66
2022-09-17T19:01:25.136Z,12.66
2022-09-17T19:03:51.928Z,12.64
2022-09-17T19:06:18.436Z,12.61
2022-09-17T19:08:45.380Z,12.67
2022-09-17T19:11:12.703Z,12.62
2022-09-17T19:13:42.046Z,12.73
2022-09-17T19:16:09.877Z,12.76
2022-09-17T19:18:39.014Z,12.66
2022-09-17T19:21:25.902Z,12.64
2022-09-17T19:23:52.571Z,12.75
2022-09-17T19:26:24.519Z,12.64
2022-09-17T19:28:57.438Z,12.64
2022-09-17T19:31:24.512Z,12.69
2022-09-17T19:33:51.595Z,12.55
2022-09-17T19:36:20.039Z,12.42
2022-09-17T19:38:47.435Z,12.52
2022-09-17T19:41:18.933Z,12.63
2022-09-17T19:43:46.437Z,12.67
2022-09-17T19:46:16.058Z,12.61
2022-09-17T19:48:47.259Z,12.53
2022-09-17T19:51:14.909Z,12.59
2022-09-17T19:53:41.918Z,12.66
2022-09-17T19:56:13.998Z,12.66
2022-09-17T19:58:41.548Z,12.63
2022-09-17T20:01:08.406Z,12.66
2022-09-17T20:03:35.454Z,12.61
2022-09-17T20:06:04.278Z,12.65
2022-09-17T20:08:31.091Z,12.53
2022-09-17T20:11:07.856Z,12.50
2022-09-17T20:13:35.064Z,12.59
2022-09-17T20:16:11.434Z,12.53
2022-09-17T20:18:38.427Z,12.58
2022-09-17T20:21:23.211Z,12.49
2022-09-17T20:23:50.103Z,12.51
2022-09-17T20:26:17.670Z,12.56
2022-09-17T20:28:44.663Z,12.51
2022-09-17T20:31:20.354Z,12.46
2022-09-17T20:33:47.288Z,12.51
2022-09-17T20:36:16.420Z,12.54
2022-09-17T20:41:34.217Z,12.25
2022-09-17T20:44:00.835Z,12.30
2022-09-17T20:46:29.242Z,12.21
2022-09-17T20:48:57.441Z,12.39
2022-09-17T20:51:26.982Z,12.31
2022-09-17T20:53:53.572Z,12.45
2022-09-17T20:56:22.852Z,12.45
2022-09-17T20:59:08.410Z,12.45
2022-09-17T21:01:37.278Z,12.34
2022-09-17T21:04:06.144Z,12.25
2022-09-17T21:06:35.569Z,12.26
2022-09-17T21:09:02.580Z,12.11
2022-09-17T21:11:30.940Z,12.10
2022-09-17T21:13:59.867Z,12.03
2022-09-17T21:16:27.171Z,12.07
2022-09-17T21:18:58.719Z,12.08
2022-09-17T21:21:25.797Z,12.08
2022-09-17T21:23:52.640Z,12.13
2022-09-17T21:26:21.849Z,12.11
2022-09-17T21:28:50.096Z,12.16
2022-09-17T21:31:19.701Z,12.06
2022-09-17T21:33:47.939Z,11.85
2022-09-17T21:36:16.946Z,11.83
2022-09-17T21:38:43.963Z,11.74
2022-09-17T21:41:15.640Z,11.83
2022-09-17T21:43:43.215Z,11.86
2022-09-17T21:46:15.690Z,11.84
2022-09-17T21:48:47.736Z,11.81
2022-09-17T21:51:20.299Z,11.81
2022-09-17T21:53:52.330Z,11.85
2022-09-17T21:56:20.070Z,11.85
2022-09-17T21:58:51.099Z,11.82
2022-09-17T22:01:20.679Z,11.71
2022-09-17T22:03:48.031Z,11.79
2022-09-17T22:06:21.387Z,11.90
2022-09-17T22:08:49.376Z,11.85
2022-09-17T22:11:25.667Z,11.85
2022-09-17T22:13:53.265Z,11.78
2022-09-17T22:16:19.969Z,11.76
2022-09-17T22:18:48.700Z,11.92
2022-09-17T22:21:21.122Z,11.80
2022-09-17T22:23:49.137Z,11.76
2022-09-17T22:26:16.529Z,11.70
2022-09-17T22:28:43.356Z,11.65
2022-09-17T22:31:11.844Z,11.61
2022-09-17T22:33:43.311Z,11.62
2022-09-17T22:36:18.015Z,11.69
2022-09-17T22:38:50.976Z,11.59
2022-09-17T22:41:21.451Z,11.62
2022-09-17T22:43:51.621Z,11.65
2022-09-17T22:46:29.440Z,11.74
2022-09-17T22:48:56.624Z,11.73
2022-09-17T22:51:24.704Z,11.80
2022-09-17T22:53:51.557Z,11.67
2022-09-17T22:56:19.780Z,11.73
2022-09-17T22:58:47.612Z,11.70
2022-09-17T23:01:17.369Z,11.60
2022-09-17T23:03:45.284Z,11.72
2022-09-17T23:06:14.241Z,11.71
2022-09-17T23:08:41.482Z,11.71
2022-09-17T23:11:16.163Z,11.72
2022-09-17T23:13:42.903Z,11.76
2022-09-17T23:16:10.007Z,11.74
2022-09-17T23:18:37.959Z,11.64
2022-09-17T23:21:13.334Z,11.74
2022-09-17T23:23:41.027Z,11.78
2022-09-17T23:26:14.275Z,11.71
2022-09-17T23:28:41.402Z,11.58
2022-09-17T23:31:26.127Z,11.63
2022-09-17T23:33:54.920Z,11.71
2022-09-17T23:36:26.897Z,11.67
2022-09-17T23:38:55.101Z,11.62
2022-09-17T23:41:30.549Z,11.60
2022-09-17T23:43:59.890Z,11.60
2022-09-17T23:46:45.854Z,11.57
2022-09-17T23:49:13.514Z,11.47
2022-09-17T23:51:40.366Z,11.37
2022-09-17T23:54:07.128Z,11.37
2022-09-17T23:56:34.421Z,11.31
2022-09-17T23:59:01.630Z,11.31
